createdAt,value
2018-06-21T00:01:33.423Z,13.87
2018-06-21T00:04:02.536Z,12.30
2018-06-21T00:06:31.740Z,11.17
2018-06-21T00:09:01.088Z,12.07
2018-06-21T00:11:30.192Z,11.13
2018-06-21T00:13:59.297Z,11.80
2018-06-21T00:16:28.490Z,9.90
2018-06-21T00:18:57.648Z,13.10
2018-06-21T00:21:26.764Z,13.93
2018-06-21T00:23:55.971Z,15.70
2018-06-21T00:26:25.344Z,11.97
2018-06-21T00:28:54.450Z,12.83
2018-06-21T00:31:23.838Z,14.87
2018-06-21T00:33:52.972Z,12.33
2018-06-21T00:36:22.080Z,12.60
2018-06-21T00:38:51.263Z,14.13
2018-06-21T00:41:20.371Z,13.50
2018-06-21T00:43:49.483Z,12.57
2018-06-21T00:46:18.624Z,13.30
2018-06-21T00:48:47.860Z,15.30
2018-06-21T00:51:17.015Z,16.80
2018-06-21T00:53:46.174Z,14.70
2018-06-21T00:56:19.494Z,11.80
2018-06-21T00:58:49.500Z,13.90
2018-06-21T01:01:19.114Z,12.60
2018-06-21T01:03:48.628Z,12.37
2018-06-21T01:06:17.823Z,11.93
2018-06-21T01:08:46.927Z,13.43
2018-06-21T01:11:16.024Z,12.27
2018-06-21T01:13:45.167Z,14.67
2018-06-21T01:16:14.327Z,12.83
2018-06-21T01:18:43.430Z,13.10
2018-06-21T01:21:12.605Z,14.03
2018-06-21T01:23:41.926Z,12.73
2018-06-21T01:26:11.026Z,14.30
2018-06-21T01:28:40.126Z,12.57
2018-06-21T01:31:09.218Z,11.87
2018-06-21T01:33:38.523Z,13.80
2018-06-21T01:36:07.610Z,14.37
2018-06-21T01:38:36.906Z,11.30
2018-06-21T01:41:06.018Z,16.23
2018-06-21T01:43:35.101Z,14.07
2018-06-21T01:46:04.391Z,15.63
2018-06-21T01:48:33.466Z,13.97
2018-06-21T01:51:02.651Z,16.53
2018-06-21T01:53:31.941Z,12.70
2018-06-21T01:56:01.044Z,14.67
2018-06-21T01:58:30.370Z,13.30
2018-06-21T02:00:59.468Z,13.47
2018-06-21T02:03:28.534Z,14.10
2018-06-21T02:05:58.081Z,12.37
2018-06-21T02:08:27.393Z,13.20
2018-06-21T02:10:56.455Z,13.53
2018-06-21T02:13:25.808Z,15.33
2018-06-21T02:15:54.880Z,12.00
2018-06-21T02:18:24.169Z,14.23
2018-06-21T02:20:53.264Z,13.93
2018-06-21T02:23:22.688Z,12.70
2018-06-21T02:25:53.562Z,11.50
2018-06-21T02:28:22.671Z,14.80
2018-06-21T02:30:51.745Z,13.23
2018-06-21T02:33:20.872Z,14.13
2018-06-21T02:35:49.958Z,13.80
2018-06-21T02:38:19.127Z,14.07
2018-06-21T02:40:48.226Z,15.20
2018-06-21T02:43:17.289Z,17.30
2018-06-21T02:45:46.944Z,14.30
2018-06-21T02:48:16.417Z,15.33
2018-06-21T02:50:45.481Z,15.10
2018-06-21T02:53:14.554Z,15.47
2018-06-21T02:55:43.877Z,15.77
2018-06-21T02:58:12.978Z,13.37
2018-06-21T03:00:42.347Z,14.90
2018-06-21T03:03:11.526Z,14.33
2018-06-21T03:05:40.658Z,12.23
2018-06-21T03:08:09.950Z,14.03
2018-06-21T03:10:39.155Z,13.77
2018-06-21T03:13:08.451Z,13.63
2018-06-21T03:15:38.266Z,15.40
2018-06-21T03:18:07.394Z,14.80
2018-06-21T03:20:36.451Z,13.30
2018-06-21T03:23:05.558Z,13.67
2018-06-21T03:25:34.670Z,14.57
2018-06-21T03:28:03.725Z,15.30
2018-06-21T03:30:32.807Z,16.30
2018-06-21T03:33:02.269Z,13.53
2018-06-21T03:35:31.398Z,15.23
2018-06-21T03:38:00.773Z,13.17
2018-06-21T03:40:30.508Z,15.77
2018-06-21T03:43:00.221Z,13.47
2018-06-21T03:45:29.539Z,12.73
2018-06-21T03:47:59.746Z,12.60
2018-06-21T03:50:29.070Z,12.60
2018-06-21T03:52:58.173Z,16.07
2018-06-21T03:55:27.358Z,12.33
2018-06-21T03:57:56.452Z,14.23
2018-06-21T04:00:26.218Z,11.73
2018-06-21T04:02:55.733Z,20.13
2018-06-21T04:05:24.830Z,15.47
2018-06-21T04:07:54.160Z,16.50
2018-06-21T04:10:23.226Z,14.77
2018-06-21T04:12:52.545Z,12.00
2018-06-21T04:15:21.661Z,15.37
2018-06-21T04:17:50.732Z,13.63
2018-06-21T04:20:19.788Z,15.87
2018-06-21T04:22:49.709Z,15.43
2018-06-21T04:25:19.422Z,13.20
2018-06-21T04:27:48.483Z,12.13
2018-06-21T04:30:18.540Z,13.23
2018-06-21T04:32:47.987Z,12.70
2018-06-21T04:35:17.275Z,13.40
2018-06-21T04:37:46.834Z,11.17
2018-06-21T04:40:16.139Z,10.43
2018-06-21T04:42:45.217Z,14.50
2018-06-21T04:45:14.613Z,12.03
2018-06-21T04:47:43.678Z,11.07
2018-06-21T04:50:12.753Z,12.00
2018-06-21T04:52:42.649Z,12.63
2018-06-21T04:55:12.161Z,13.50
2018-06-21T04:57:41.291Z,13.00
2018-06-21T05:00:10.485Z,13.50
2018-06-21T05:02:39.719Z,13.43
2018-06-21T05:05:08.810Z,11.57
2018-06-21T05:07:37.961Z,10.73
2018-06-21T05:10:07.250Z,14.20
2018-06-21T05:12:36.326Z,14.10
2018-06-21T05:15:05.477Z,15.53
2018-06-21T05:17:35.400Z,11.40
2018-06-21T05:20:04.526Z,16.00
2018-06-21T05:22:33.807Z,11.60
2018-06-21T05:25:02.927Z,11.57
2018-06-21T05:27:32.310Z,13.70
2018-06-21T05:30:01.354Z,15.00
2018-06-21T05:32:30.647Z,10.80
2018-06-21T05:35:00.798Z,17.33
2018-06-21T05:37:30.082Z,11.10
2018-06-21T05:39:59.113Z,13.97
2018-06-21T05:42:28.212Z,14.73
2018-06-21T05:44:57.259Z,11.37
2018-06-21T05:47:26.547Z,13.27
2018-06-21T05:49:55.605Z,14.93
2018-06-21T05:52:24.629Z,13.13
2018-06-21T05:54:53.897Z,13.87
2018-06-21T05:57:22.988Z,13.10
2018-06-21T05:59:52.261Z,13.70
2018-06-21T06:02:21.550Z,15.07
2018-06-21T06:04:50.877Z,13.80
2018-06-21T06:07:19.916Z,9.70
2018-06-21T06:09:49.209Z,9.73
2018-06-21T06:12:25.321Z,12.30
2018-06-21T06:14:54.350Z,10.20
2018-06-21T06:17:23.701Z,10.20
2018-06-21T06:19:53.098Z,13.60
2018-06-21T06:22:22.575Z,9.20
2018-06-21T06:24:51.929Z,10.03
2018-06-21T06:27:21.215Z,11.23
2018-06-21T06:29:50.325Z,9.23
2018-06-21T06:32:20.167Z,10.20
2018-06-21T06:34:49.200Z,10.17
2018-06-21T06:37:21.349Z,10.53
2018-06-21T06:39:50.385Z,8.93
2018-06-21T06:42:19.441Z,12.33
2018-06-21T06:44:48.760Z,9.70
2018-06-21T06:47:17.797Z,10.67
2018-06-21T06:49:46.885Z,10.67
2018-06-21T06:52:15.938Z,10.47
2018-06-21T06:54:46.785Z,17.43
2018-06-21T06:57:16.503Z,7.73
2018-06-21T06:59:45.709Z,11.00
2018-06-21T07:02:15.354Z,8.30
2018-06-21T07:04:45.023Z,10.30
2018-06-21T07:07:16.163Z,7.93
2018-06-21T07:09:45.711Z,8.33
2018-06-21T07:12:15.182Z,8.97
2018-06-21T07:14:44.282Z,9.10
2018-06-21T07:17:13.765Z,11.00
2018-06-21T07:19:42.954Z,8.47
2018-06-21T07:22:12.451Z,9.73
2018-06-21T07:24:41.621Z,8.00
2018-06-21T07:27:10.896Z,9.73
2018-06-21T07:29:39.973Z,12.77
2018-06-21T07:32:09.246Z,9.50
2018-06-21T07:34:38.477Z,11.90
2018-06-21T07:37:07.681Z,7.67
2018-06-21T07:39:36.798Z,8.40
2018-06-21T07:42:05.892Z,6.50
2018-06-21T07:44:35.214Z,7.83
2018-06-21T07:47:04.597Z,10.70
2018-06-21T07:49:34.008Z,10.10
2018-06-21T07:52:03.294Z,10.10
2018-06-21T07:54:32.553Z,9.23
2018-06-21T07:57:01.814Z,6.77
2018-06-21T07:59:30.994Z,9.13
2018-06-21T08:02:00.233Z,7.80
2018-06-21T08:04:29.594Z,23.00
2018-06-21T08:06:58.912Z,7.20
2018-06-21T08:09:28.090Z,6.33
2018-06-21T08:11:57.429Z,9.20
2018-06-21T08:14:26.614Z,7.70
2018-06-21T08:16:56.537Z,5.87
2018-06-21T08:19:26.631Z,7.20
2018-06-21T08:21:55.733Z,7.70
2018-06-21T08:24:25.592Z,6.33
2018-06-21T08:26:55.105Z,7.50
2018-06-21T08:29:24.705Z,10.53
2018-06-21T08:31:54.334Z,7.50
2018-06-21T08:34:23.734Z,9.50
2018-06-21T08:36:53.134Z,7.00
2018-06-21T08:39:22.189Z,6.80
2018-06-21T08:41:51.240Z,7.37
2018-06-21T08:44:20.278Z,7.60
2018-06-21T08:46:49.549Z,7.10
2018-06-21T08:49:19.144Z,7.07
2018-06-21T08:51:48.158Z,10.93
2018-06-21T08:54:17.177Z,6.03
2018-06-21T08:56:47.017Z,6.37
2018-06-21T08:59:16.256Z,12.67
2018-06-21T09:01:45.278Z,8.53
2018-06-21T09:04:14.457Z,14.80
2018-06-21T09:06:43.700Z,6.70
2018-06-21T09:09:12.953Z,10.63
2018-06-21T09:11:42.003Z,7.40
2018-06-21T09:14:11.036Z,9.13
2018-06-21T09:16:40.337Z,6.50
2018-06-21T09:19:09.393Z,9.27
2018-06-21T09:21:38.421Z,7.70
2018-06-21T09:24:07.696Z,12.20
2018-06-21T09:26:36.764Z,5.97
2018-06-21T09:29:06.188Z,8.30
2018-06-21T09:31:35.619Z,7.40
2018-06-21T09:34:04.901Z,7.17
2018-06-21T09:36:37.401Z,11.20
2018-06-21T09:39:15.396Z,5.27
2018-06-21T09:41:49.986Z,5.50
2018-06-21T09:44:24.434Z,7.83
2018-06-21T09:46:58.761Z,5.30
2018-06-21T09:49:32.475Z,5.80
2018-06-21T09:52:03.822Z,6.47
2018-06-21T09:54:33.499Z,6.37
2018-06-21T09:57:03.414Z,7.83
2018-06-21T09:59:32.497Z,13.37
2018-06-21T10:02:01.549Z,8.97
2018-06-21T10:04:30.873Z,4.47
2018-06-21T10:07:00.199Z,5.93
2018-06-21T10:09:29.288Z,4.80
2018-06-21T10:11:58.343Z,10.13
2018-06-21T10:14:27.853Z,7.00
2018-06-21T10:16:57.126Z,9.70
2018-06-21T10:19:26.167Z,8.13
2018-06-21T10:21:55.198Z,6.80
2018-06-21T10:24:24.264Z,13.03
2018-06-21T10:26:53.540Z,11.23
2018-06-21T10:29:22.714Z,9.07
2018-06-21T10:31:51.950Z,11.60
2018-06-21T10:34:21.169Z,9.00
2018-06-21T10:36:50.433Z,6.20
2018-06-21T10:39:19.766Z,44.63
2018-06-21T10:41:48.828Z,71.57
2018-06-21T10:44:17.942Z,32.48
2018-06-21T10:46:47.208Z,16.17
2018-06-21T10:49:16.292Z,8.10
2018-06-21T10:51:45.393Z,10.33
2018-06-21T10:54:14.452Z,13.47
2018-06-21T10:56:43.528Z,9.30
2018-06-21T10:59:12.613Z,8.43
2018-06-21T11:01:41.685Z,4.40
2018-06-21T11:04:10.739Z,4.67
2018-06-21T11:06:39.807Z,5.30
2018-06-21T11:09:09.220Z,5.20
2018-06-21T11:11:38.291Z,6.40
2018-06-21T11:14:07.441Z,4.27
2018-06-21T11:16:36.681Z,5.53
2018-06-21T11:19:05.954Z,6.03
2018-06-21T11:21:35.028Z,9.73
2018-06-21T11:24:04.761Z,4.13
2018-06-21T11:26:34.277Z,5.30
2018-06-21T11:29:03.309Z,4.20
2018-06-21T11:31:32.333Z,3.07
2018-06-21T11:34:01.390Z,3.20
2018-06-21T11:36:30.415Z,3.83
2018-06-21T11:39:00.018Z,2.80
2018-06-21T11:41:29.387Z,4.83
2018-06-21T11:43:58.498Z,2.97
2018-06-21T11:46:27.669Z,3.83
2018-06-21T11:48:56.845Z,3.90
2018-06-21T11:51:26.138Z,3.50
2018-06-21T11:53:55.216Z,2.70
2018-06-21T11:56:24.682Z,2.60
2018-06-21T11:58:54.005Z,3.17
2018-06-21T12:01:23.277Z,2.43
2018-06-21T12:03:52.336Z,2.90
2018-06-21T12:06:21.369Z,3.87
2018-06-21T12:08:50.514Z,5.70
2018-06-21T12:11:19.765Z,3.13
2018-06-21T12:13:48.801Z,1.87
2018-06-21T12:16:18.087Z,3.70
2018-06-21T12:18:47.208Z,2.80
2018-06-21T12:21:16.235Z,1.60
2018-06-21T12:23:45.262Z,1.70
2018-06-21T12:26:14.427Z,1.90
2018-06-21T12:28:43.622Z,1.73
2018-06-21T12:31:12.692Z,1.40
2018-06-21T12:33:41.802Z,1.90
2018-06-21T12:36:11.877Z,2.40
2018-06-21T12:38:41.470Z,1.40
2018-06-21T12:41:10.574Z,1.30
2018-06-21T12:43:39.912Z,1.50
2018-06-21T12:46:09.256Z,1.50
2018-06-21T12:48:38.713Z,1.37
2018-06-21T12:51:07.810Z,1.50
2018-06-21T12:53:36.862Z,1.80
2018-06-21T12:56:06.155Z,1.37
2018-06-21T12:58:35.201Z,1.23
2018-06-21T13:01:04.289Z,2.37
2018-06-21T13:03:35.438Z,2.67
2018-06-21T13:06:04.477Z,1.40
2018-06-21T13:08:44.929Z,1.50
2018-06-21T13:11:30.876Z,1.30
2018-06-21T13:14:11.403Z,1.30
2018-06-21T13:16:40.493Z,2.07
2018-06-21T13:19:09.539Z,1.20
2018-06-21T13:21:38.837Z,1.77
2018-06-21T13:24:08.089Z,1.47
2018-06-21T13:26:37.112Z,1.10
2018-06-21T13:29:06.372Z,0.97
2018-06-21T13:31:35.633Z,1.23
2018-06-21T13:34:04.665Z,1.20
2018-06-21T13:36:33.746Z,1.00
2018-06-21T13:39:02.791Z,1.27
2018-06-21T13:41:32.116Z,1.10
2018-06-21T13:44:01.173Z,1.00
2018-06-21T13:46:30.290Z,1.70
2018-06-21T13:48:59.330Z,1.00
2018-06-21T13:51:28.409Z,0.87
2018-06-21T13:53:57.447Z,0.87
2018-06-21T13:56:26.725Z,0.87
2018-06-21T13:58:56.013Z,1.00
2018-06-21T14:01:25.273Z,1.57
2018-06-21T14:03:54.542Z,1.10
2018-06-21T14:06:23.810Z,1.23
2018-06-21T14:08:53.082Z,1.40
2018-06-21T14:11:22.119Z,1.20
2018-06-21T14:13:51.190Z,1.10
2018-06-21T14:16:20.497Z,1.20
2018-06-21T14:18:49.558Z,1.10
2018-06-21T14:21:18.635Z,1.00
2018-06-21T14:23:47.670Z,1.07
2018-06-21T14:26:16.713Z,2.60
2018-06-21T14:28:46.283Z,1.03
2018-06-21T14:31:15.550Z,1.77
2018-06-21T14:33:44.818Z,1.10
2018-06-21T14:36:13.965Z,3.33
2018-06-21T14:38:42.988Z,1.90
2018-06-21T14:41:12.017Z,1.40
2018-06-21T14:43:41.293Z,2.23
2018-06-21T14:46:10.513Z,1.03
2018-06-21T14:48:39.776Z,1.27
2018-06-21T14:51:08.842Z,1.83
2018-06-21T14:53:38.385Z,1.10
2018-06-21T14:56:07.385Z,1.63
2018-06-21T14:58:36.665Z,1.27
2018-06-21T15:01:05.694Z,1.47
2018-06-21T15:03:34.833Z,1.10
2018-06-21T15:06:03.881Z,1.87
2018-06-21T15:08:32.924Z,0.90
2018-06-21T15:11:01.957Z,1.77
2018-06-21T15:13:31.101Z,0.93
2018-06-21T15:16:00.125Z,1.20
2018-06-21T15:18:29.181Z,1.00
2018-06-21T15:20:58.500Z,0.87
2018-06-21T15:23:27.579Z,1.00
2018-06-21T15:25:56.675Z,1.43
2018-06-21T15:28:25.757Z,1.00
2018-06-21T15:30:54.790Z,0.90
2018-06-21T15:33:23.832Z,0.80
2018-06-21T15:35:53.202Z,1.50
2018-06-21T15:38:22.628Z,1.67
2018-06-21T15:40:51.658Z,1.57
2018-06-21T15:43:20.926Z,0.80
2018-06-21T15:45:49.977Z,1.23
2018-06-21T15:48:19.065Z,1.13
2018-06-21T15:50:48.377Z,0.93
2018-06-21T15:53:17.667Z,1.43
2018-06-21T15:55:46.697Z,1.57
2018-06-21T15:58:16.016Z,1.00
2018-06-21T16:00:45.057Z,1.90
2018-06-21T16:03:14.099Z,1.57
2018-06-21T16:05:43.149Z,0.90
2018-06-21T16:08:12.200Z,0.80
2018-06-21T16:10:41.210Z,4.60
2018-06-21T16:13:10.944Z,1.10
2018-06-21T16:15:40.230Z,1.37
2018-06-21T16:18:09.305Z,1.07
2018-06-21T16:20:38.600Z,3.63
2018-06-21T16:23:07.640Z,1.20
2018-06-21T16:25:36.962Z,1.30
2018-06-21T16:28:06.441Z,1.83
2018-06-21T16:30:36.049Z,0.80
2018-06-21T16:33:05.229Z,1.27
2018-06-21T16:35:34.341Z,1.10
2018-06-21T16:38:03.637Z,3.43
2018-06-21T16:40:32.989Z,1.03
2018-06-21T16:43:02.285Z,2.30
2018-06-21T16:45:31.906Z,0.90
2018-06-21T16:48:00.941Z,1.57
2018-06-21T16:50:30.046Z,2.00
2018-06-21T16:52:59.316Z,1.17
2018-06-21T16:55:28.366Z,1.00
2018-06-21T16:57:57.638Z,2.40
2018-06-21T17:00:26.921Z,0.90
2018-06-21T17:02:56.291Z,1.00
2018-06-21T17:05:25.571Z,2.03
2018-06-21T17:07:54.661Z,1.20
2018-06-21T17:10:23.963Z,4.30
2018-06-21T17:12:53.010Z,1.50
2018-06-21T17:15:22.030Z,1.33
2018-06-21T17:17:51.061Z,1.87
2018-06-21T17:20:20.152Z,1.97
2018-06-21T17:22:49.405Z,2.00
2018-06-21T17:25:18.465Z,1.67
2018-06-21T17:27:47.554Z,1.30
2018-06-21T17:30:16.671Z,3.27
2018-06-21T17:32:45.908Z,2.40
2018-06-21T17:35:15.119Z,3.03
2018-06-21T17:37:44.224Z,2.03
2018-06-21T17:40:13.250Z,2.80
2018-06-21T17:42:42.299Z,1.47
2018-06-21T17:45:11.312Z,2.07
2018-06-21T17:47:40.409Z,1.57
2018-06-21T17:50:09.564Z,1.90
2018-06-21T17:52:38.650Z,1.53
2018-06-21T17:55:07.692Z,2.40
2018-06-21T17:57:36.785Z,0.93
2018-06-21T18:00:05.967Z,1.23
2018-06-21T18:02:35.062Z,1.13
2018-06-21T18:05:04.115Z,1.87
2018-06-21T18:07:33.219Z,1.27
2018-06-21T18:10:02.506Z,1.20
2018-06-21T18:12:31.697Z,1.27
2018-06-21T18:15:01.232Z,0.80
2018-06-21T18:17:30.581Z,5.33
2018-06-21T18:20:00.151Z,0.80
2018-06-21T18:22:29.273Z,1.27
2018-06-21T18:24:58.837Z,0.83
2018-06-21T18:27:28.425Z,1.63
2018-06-21T18:29:57.673Z,0.80
2018-06-21T18:32:28.723Z,2.00
2018-06-21T18:34:58.215Z,1.60
2018-06-21T18:37:27.333Z,1.17
2018-06-21T18:39:56.535Z,1.80
2018-06-21T18:42:25.647Z,1.30
2018-06-21T18:44:54.898Z,2.00
2018-06-21T18:47:23.978Z,3.37
2018-06-21T18:49:54.711Z,2.10
2018-06-21T18:52:24.228Z,0.90
2018-06-21T18:54:54.301Z,1.73
2018-06-21T18:57:23.680Z,0.80
2018-06-21T18:59:52.709Z,1.73
2018-06-21T19:02:23.677Z,0.70
2018-06-21T19:04:52.862Z,0.70
2018-06-21T19:07:27.821Z,0.87
2018-06-21T19:10:02.402Z,1.17
2018-06-21T19:12:31.742Z,0.70
2018-06-21T19:15:00.783Z,0.77
2018-06-21T19:17:30.205Z,1.17
2018-06-21T19:19:59.417Z,0.90
2018-06-21T19:22:28.478Z,0.70
2018-06-21T19:24:57.501Z,1.20
2018-06-21T19:27:26.610Z,0.80
2018-06-21T19:29:55.758Z,0.97
2018-06-21T19:32:24.918Z,0.70
2018-06-21T19:34:54.393Z,0.70
2018-06-21T19:37:23.697Z,0.70
2018-06-21T19:39:53.320Z,2.80
2018-06-21T19:42:22.375Z,2.10
2018-06-21T19:44:51.481Z,0.80
2018-06-21T19:47:20.826Z,0.80
2018-06-21T19:49:49.974Z,1.00
2018-06-21T19:52:19.030Z,2.27
2018-06-21T19:54:48.775Z,1.10
2018-06-21T19:57:17.849Z,1.20
2018-06-21T19:59:46.951Z,4.70
2018-06-21T20:02:16.044Z,2.13
2018-06-21T20:04:45.305Z,1.20
2018-06-21T20:07:14.602Z,1.30
2018-06-21T20:09:43.686Z,5.73
2018-06-21T20:12:13.034Z,4.90
2018-06-21T20:14:42.370Z,7.17
2018-06-21T20:17:11.563Z,7.47
2018-06-21T20:19:45.882Z,5.43
2018-06-21T20:22:15.593Z,8.77
2018-06-21T20:24:44.997Z,2.97
2018-06-21T20:27:14.043Z,2.50
2018-06-21T20:29:43.369Z,2.30
2018-06-21T20:32:12.401Z,1.87
2018-06-21T20:34:41.433Z,2.30
2018-06-21T20:37:15.704Z,1.40
2018-06-21T20:39:44.799Z,6.43
2018-06-21T20:42:14.078Z,4.03
2018-06-21T20:44:43.127Z,2.97
2018-06-21T20:47:12.398Z,4.47
2018-06-21T20:49:41.729Z,1.90
2018-06-21T20:52:16.065Z,5.10
2018-06-21T20:54:45.141Z,3.57
2018-06-21T20:57:14.343Z,1.80
2018-06-21T20:59:43.910Z,1.40
2018-06-21T21:02:13.174Z,5.63
2018-06-21T21:05:16.544Z,2.70
2018-06-21T21:07:47.021Z,2.90
2018-06-21T21:10:17.080Z,2.23
2018-06-21T21:12:46.341Z,4.10
2018-06-21T21:15:15.999Z,2.30
2018-06-21T21:17:45.290Z,3.80
2018-06-21T21:20:14.552Z,1.40
2018-06-21T21:22:43.632Z,1.37
2018-06-21T21:25:12.654Z,1.83
2018-06-21T21:27:41.741Z,1.23
2018-06-21T21:30:10.926Z,2.77
2018-06-21T21:32:40.044Z,2.27
2018-06-21T21:35:09.429Z,2.20
2018-06-21T21:37:38.467Z,2.60
2018-06-21T21:40:07.932Z,1.43
2018-06-21T21:42:38.225Z,2.00
2018-06-21T21:45:07.634Z,1.20
2018-06-21T21:47:36.688Z,2.10
2018-06-21T21:50:05.761Z,3.43
2018-06-21T21:52:35.018Z,1.87
2018-06-21T21:55:04.059Z,1.07
2018-06-21T21:57:33.073Z,1.17
2018-06-21T22:00:02.116Z,1.23
2018-06-21T22:02:32.641Z,0.80
2018-06-21T22:05:01.834Z,2.83
2018-06-21T22:07:30.849Z,1.10
2018-06-21T22:10:00.115Z,2.70
2018-06-21T22:12:29.136Z,2.30
2018-06-21T22:14:58.141Z,1.43
2018-06-21T22:17:27.412Z,1.40
2018-06-21T22:19:56.423Z,1.13
2018-06-21T22:22:25.576Z,2.13
2018-06-21T22:24:54.861Z,2.63
2018-06-21T22:27:23.917Z,3.40
2018-06-21T22:29:52.930Z,3.80
2018-06-21T22:32:22.009Z,2.53
2018-06-21T22:34:51.273Z,0.90
2018-06-21T22:37:20.363Z,3.97
2018-06-21T22:39:49.435Z,2.10
2018-06-21T22:42:18.438Z,3.03
2018-06-21T22:44:47.564Z,1.80
2018-06-21T22:47:16.797Z,1.70
2018-06-21T22:49:46.081Z,2.03
2018-06-21T22:52:15.142Z,1.40
2018-06-21T22:54:44.411Z,1.90
2018-06-21T22:57:13.658Z,4.37
2018-06-21T22:59:42.699Z,3.20
2018-06-21T23:02:11.710Z,1.80
2018-06-21T23:04:40.714Z,2.30
2018-06-21T23:07:09.965Z,1.87
2018-06-21T23:09:38.988Z,3.20
2018-06-21T23:12:08.010Z,3.00
2018-06-21T23:14:37.033Z,2.20
2018-06-21T23:17:06.377Z,2.40
2018-06-21T23:19:35.392Z,1.77
2018-06-21T23:22:04.385Z,1.80
2018-06-21T23:24:33.661Z,2.43
2018-06-21T23:27:02.656Z,2.23
2018-06-21T23:29:31.874Z,2.70
2018-06-21T23:32:00.925Z,2.23
2018-06-21T23:34:29.937Z,2.97
2018-06-21T23:36:59.177Z,2.80
2018-06-21T23:39:28.238Z,1.40
2018-06-21T23:41:57.454Z,6.77
2018-06-21T23:44:26.454Z,2.37
2018-06-21T23:46:55.484Z,2.00
2018-06-21T23:49:24.500Z,2.07
2018-06-21T23:51:53.506Z,2.33
2018-06-21T23:54:22.572Z,1.30
2018-06-21T23:56:51.564Z,3.77
2018-06-21T23:59:20.896Z,5.93
